Stanton, Michigan
Current Conditions -  °F | °C
As of 1:51 AM on Monday 24 Nov 2014 (Local Time) from KAMN Reporting Station
Moderate Rain Moderate Rain  
Wind Chill: 46°   Ceiling: 400
Heat Index: 49°   Visibility: 4mi
Dew Point: 48°   Wind: 7mph
Humidity: 98%   Direction: 130°SE
Pressure: 29.05"   Gusts: NA
Location:  43.29°N, 85.08°W
Report Text: KAMN 240651Z AUTO 13006KT 4SM RA OVC004 09/09 A2905 RMK AO2 T00940091
Loading
Personal Weather Stations






























Interactive Weather Map New forecast layout! Learn more

10-Day Weather Forecast

Advertisements
Track Severe Weather on mobile